sensor_id;sensor_type;location;lat;lon;timestamp;temperature;humidity
22436;DHT22;11385;50.822;4.324;2023-06-26T00:01:30;24.50;99.90
22436;DHT22;11385;50.822;4.324;2023-06-26T00:03:58;24.30;99.90
22436;DHT22;11385;50.822;4.324;2023-06-26T00:06:25;24.50;99.90
22436;DHT22;11385;50.822;4.324;2023-06-26T00:08:53;24.60;99.90
22436;DHT22;11385;50.822;4.324;2023-06-26T00:11:21;24.40;99.90
22436;DHT22;11385;50.822;4.324;2023-06-26T00:13:48;24.30;99.90
22436;DHT22;11385;50.822;4.324;2023-06-26T00:16:15;24.20;99.90
22436;DHT22;11385;50.822;4.324;2023-06-26T00:18:42;24.00;99.90
22436;DHT22;11385;50.822;4.324;2023-06-26T00:21:08;23.80;99.90
22436;DHT22;11385;50.822;4.324;2023-06-26T00:23:35;23.60;99.90
22436;DHT22;11385;50.822;4.324;2023-06-26T00:26:04;23.60;99.90
22436;DHT22;11385;50.822;4.324;2023-06-26T00:28:31;23.60;99.90
22436;DHT22;11385;50.822;4.324;2023-06-26T00:30:57;23.40;99.90
22436;DHT22;11385;50.822;4.324;2023-06-26T00:33:24;23.60;99.90
22436;DHT22;11385;50.822;4.324;2023-06-26T00:35:51;23.50;99.90
22436;DHT22;11385;50.822;4.324;2023-06-26T00:38:17;23.40;99.90
22436;DHT22;11385;50.822;4.324;2023-06-26T00:40:44;23.30;99.90
22436;DHT22;11385;50.822;4.324;2023-06-26T00:43:11;23.10;99.90
22436;DHT22;11385;50.822;4.324;2023-06-26T00:45:38;22.90;99.90
22436;DHT22;11385;50.822;4.324;2023-06-26T00:48:05;22.80;99.90
22436;DHT22;11385;50.822;4.324;2023-06-26T00:50:32;22.80;99.90
22436;DHT22;11385;50.822;4.324;2023-06-26T00:52:59;22.60;99.90
22436;DHT22;11385;50.822;4.324;2023-06-26T00:55:27;22.60;99.90
22436;DHT22;11385;50.822;4.324;2023-06-26T00:57:55;22.60;99.90
22436;DHT22;11385;50.822;4.324;2023-06-26T01:00:22;22.50;99.90
22436;DHT22;11385;50.822;4.324;2023-06-26T01:02:49;22.30;99.90
22436;DHT22;11385;50.822;4.324;2023-06-26T01:05:15;22.30;99.90
22436;DHT22;11385;50.822;4.324;2023-06-26T01:07:44;22.30;99.90
22436;DHT22;11385;50.822;4.324;2023-06-26T01:10:11;22.30;99.90
22436;DHT22;11385;50.822;4.324;2023-06-26T01:12:38;22.30;99.90
22436;DHT22;11385;50.822;4.324;2023-06-26T01:15:05;22.10;99.90
22436;DHT22;11385;50.822;4.324;2023-06-26T01:17:33;22.10;99.90
22436;DHT22;11385;50.822;4.324;2023-06-26T01:20:03;22.10;99.90
22436;DHT22;11385;50.822;4.324;2023-06-26T01:22:57;22.20;99.90
22436;DHT22;11385;50.822;4.324;2023-06-26T01:25:40;22.20;99.90
22436;DHT22;11385;50.822;4.324;2023-06-26T01:28:06;22.20;99.90
22436;DHT22;11385;50.822;4.324;2023-06-26T01:30:37;22.10;99.90
22436;DHT22;11385;50.822;4.324;2023-06-26T01:33:04;22.10;99.90
22436;DHT22;11385;50.822;4.324;2023-06-26T01:35:32;22.00;99.90
22436;DHT22;11385;50.822;4.324;2023-06-26T01:38:11;22.00;99.90
22436;DHT22;11385;50.822;4.324;2023-06-26T01:40:39;22.00;99.90
22436;DHT22;11385;50.822;4.324;2023-06-26T01:43:09;21.90;99.90
22436;DHT22;11385;50.822;4.324;2023-06-26T01:45:37;21.80;99.90
22436;DHT22;11385;50.822;4.324;2023-06-26T01:48:06;21.90;99.90
22436;DHT22;11385;50.822;4.324;2023-06-26T01:50:35;22.00;99.90
22436;DHT22;11385;50.822;4.324;2023-06-26T01:53:10;21.90;99.90
22436;DHT22;11385;50.822;4.324;2023-06-26T01:55:40;21.70;99.90
22436;DHT22;11385;50.822;4.324;2023-06-26T01:58:05;21.70;99.90
22436;DHT22;11385;50.822;4.324;2023-06-26T02:00:33;21.40;99.90
22436;DHT22;11385;50.822;4.324;2023-06-26T02:03:00;21.40;99.90
22436;DHT22;11385;50.822;4.324;2023-06-26T02:05:26;21.40;99.90
22436;DHT22;11385;50.822;4.324;2023-06-26T02:07:53;21.30;99.90
22436;DHT22;11385;50.822;4.324;2023-06-26T02:10:20;21.40;99.90
22436;DHT22;11385;50.822;4.324;2023-06-26T02:12:46;21.50;99.90
22436;DHT22;11385;50.822;4.324;2023-06-26T02:15:13;21.60;99.90
22436;DHT22;11385;50.822;4.324;2023-06-26T02:17:40;21.40;99.90
22436;DHT22;11385;50.822;4.324;2023-06-26T02:20:07;21.60;99.90
22436;DHT22;11385;50.822;4.324;2023-06-26T02:22:36;21.60;99.90
22436;DHT22;11385;50.822;4.324;2023-06-26T02:25:03;21.60;99.90
22436;DHT22;11385;50.822;4.324;2023-06-26T02:27:29;21.60;99.90
22436;DHT22;11385;50.822;4.324;2023-06-26T02:29:56;21.50;99.90
22436;DHT22;11385;50.822;4.324;2023-06-26T02:32:22;21.50;99.90
22436;DHT22;11385;50.822;4.324;2023-06-26T02:34:49;21.60;99.90
22436;DHT22;11385;50.822;4.324;2023-06-26T02:37:18;21.50;99.90
22436;DHT22;11385;50.822;4.324;2023-06-26T02:39:45;21.70;99.90
22436;DHT22;11385;50.822;4.324;2023-06-26T02:42:12;21.50;99.90
22436;DHT22;11385;50.822;4.324;2023-06-26T02:44:38;21.60;99.90
22436;DHT22;11385;50.822;4.324;2023-06-26T02:47:05;21.40;99.90
22436;DHT22;11385;50.822;4.324;2023-06-26T02:49:32;21.30;99.90
22436;DHT22;11385;50.822;4.324;2023-06-26T02:51:58;21.00;99.90
22436;DHT22;11385;50.822;4.324;2023-06-26T02:54:25;20.70;99.90
22436;DHT22;11385;50.822;4.324;2023-06-26T02:56:51;20.60;99.90
22436;DHT22;11385;50.822;4.324;2023-06-26T02:59:18;20.50;99.90
22436;DHT22;11385;50.822;4.324;2023-06-26T03:01:45;20.30;99.90
22436;DHT22;11385;50.822;4.324;2023-06-26T03:04:11;20.20;99.90
22436;DHT22;11385;50.822;4.324;2023-06-26T03:06:38;20.30;99.90
22436;DHT22;11385;50.822;4.324;2023-06-26T03:09:05;20.20;99.90
22436;DHT22;11385;50.822;4.324;2023-06-26T03:11:31;20.30;99.90
22436;DHT22;11385;50.822;4.324;2023-06-26T03:13:58;20.40;99.90
22436;DHT22;11385;50.822;4.324;2023-06-26T03:16:24;20.30;99.90
22436;DHT22;11385;50.822;4.324;2023-06-26T03:18:51;20.40;99.90
22436;DHT22;11385;50.822;4.324;2023-06-26T03:21:18;20.40;99.90
22436;DHT22;11385;50.822;4.324;2023-06-26T03:23:44;20.30;99.90
22436;DHT22;11385;50.822;4.324;2023-06-26T03:26:11;20.20;99.90
22436;DHT22;11385;50.822;4.324;2023-06-26T03:28:40;20.10;99.90
22436;DHT22;11385;50.822;4.324;2023-06-26T03:31:08;20.10;99.90
22436;DHT22;11385;50.822;4.324;2023-06-26T03:33:34;19.90;99.90
22436;DHT22;11385;50.822;4.324;2023-06-26T03:36:01;19.90;99.90
22436;DHT22;11385;50.822;4.324;2023-06-26T03:38:27;20.00;99.90
22436;DHT22;11385;50.822;4.324;2023-06-26T03:40:54;20.00;99.90
22436;DHT22;11385;50.822;4.324;2023-06-26T03:43:21;20.00;99.90
22436;DHT22;11385;50.822;4.324;2023-06-26T03:45:47;20.00;99.90
22436;DHT22;11385;50.822;4.324;2023-06-26T03:48:14;20.00;99.90
22436;DHT22;11385;50.822;4.324;2023-06-26T03:50:41;20.00;99.90
22436;DHT22;11385;50.822;4.324;2023-06-26T03:53:07;20.00;99.90
22436;DHT22;11385;50.822;4.324;2023-06-26T03:55:34;19.90;99.90
22436;DHT22;11385;50.822;4.324;2023-06-26T03:58:00;19.90;99.90
22436;DHT22;11385;50.822;4.324;2023-06-26T04:00:28;19.90;99.90
22436;DHT22;11385;50.822;4.324;2023-06-26T04:02:55;19.80;99.90
22436;DHT22;11385;50.822;4.324;2023-06-26T04:05:21;19.80;99.90
22436;DHT22;11385;50.822;4.324;2023-06-26T04:07:51;19.70;99.90
22436;DHT22;11385;50.822;4.324;2023-06-26T04:10:18;19.70;99.90
22436;DHT22;11385;50.822;4.324;2023-06-26T04:12:47;19.50;99.90
22436;DHT22;11385;50.822;4.324;2023-06-26T04:15:14;19.70;99.90
22436;DHT22;11385;50.822;4.324;2023-06-26T04:17:41;19.70;99.90
22436;DHT22;11385;50.822;4.324;2023-06-26T04:20:08;19.60;99.90
22436;DHT22;11385;50.822;4.324;2023-06-26T04:22:35;19.60;99.90
22436;DHT22;11385;50.822;4.324;2023-06-26T04:25:03;19.50;99.90
22436;DHT22;11385;50.822;4.324;2023-06-26T04:27:30;19.40;99.90
22436;DHT22;11385;50.822;4.324;2023-06-26T04:29:56;19.50;99.90
22436;DHT22;11385;50.822;4.324;2023-06-26T04:32:24;19.50;99.90
22436;DHT22;11385;50.822;4.324;2023-06-26T04:34:51;19.60;99.90
22436;DHT22;11385;50.822;4.324;2023-06-26T04:37:17;19.60;99.90
22436;DHT22;11385;50.822;4.324;2023-06-26T04:39:44;19.50;99.90
22436;DHT22;11385;50.822;4.324;2023-06-26T04:42:11;19.50;99.90
22436;DHT22;11385;50.822;4.324;2023-06-26T04:44:39;19.40;99.90
22436;DHT22;11385;50.822;4.324;2023-06-26T04:47:08;19.50;99.90
22436;DHT22;11385;50.822;4.324;2023-06-26T04:49:35;19.30;99.90
22436;DHT22;11385;50.822;4.324;2023-06-26T04:52:02;19.30;99.90
22436;DHT22;11385;50.822;4.324;2023-06-26T04:54:29;19.10;99.90
22436;DHT22;11385;50.822;4.324;2023-06-26T04:56:55;19.10;99.90
22436;DHT22;11385;50.822;4.324;2023-06-26T04:59:22;19.20;99.90
22436;DHT22;11385;50.822;4.324;2023-06-26T05:01:49;19.10;99.90
22436;DHT22;11385;50.822;4.324;2023-06-26T05:04:16;19.10;99.90
22436;DHT22;11385;50.822;4.324;2023-06-26T05:06:43;19.30;99.90
22436;DHT22;11385;50.822;4.324;2023-06-26T05:09:10;19.30;99.90
22436;DHT22;11385;50.822;4.324;2023-06-26T05:11:37;19.00;99.90
22436;DHT22;11385;50.822;4.324;2023-06-26T05:14:03;19.00;99.90
22436;DHT22;11385;50.822;4.324;2023-06-26T05:16:33;19.00;99.90
22436;DHT22;11385;50.822;4.324;2023-06-26T05:19:00;19.10;99.90
22436;DHT22;11385;50.822;4.324;2023-06-26T05:21:33;19.10;99.90
22436;DHT22;11385;50.822;4.324;2023-06-26T05:24:01;19.10;99.90
22436;DHT22;11385;50.822;4.324;2023-06-26T05:26:29;19.10;99.90
22436;DHT22;11385;50.822;4.324;2023-06-26T05:28:56;19.20;99.90
22436;DHT22;11385;50.822;4.324;2023-06-26T05:31:23;19.00;99.90
22436;DHT22;11385;50.822;4.324;2023-06-26T05:33:49;19.10;99.90
22436;DHT22;11385;50.822;4.324;2023-06-26T05:36:18;19.20;99.90
22436;DHT22;11385;50.822;4.324;2023-06-26T05:38:45;19.30;99.90
22436;DHT22;11385;50.822;4.324;2023-06-26T05:41:11;19.30;99.90
22436;DHT22;11385;50.822;4.324;2023-06-26T05:43:38;19.20;99.90
22436;DHT22;11385;50.822;4.324;2023-06-26T05:46:05;19.00;99.90
22436;DHT22;11385;50.822;4.324;2023-06-26T05:48:31;19.00;99.90
22436;DHT22;11385;50.822;4.324;2023-06-26T05:50:58;19.00;99.90
22436;DHT22;11385;50.822;4.324;2023-06-26T05:53:25;19.10;99.90
22436;DHT22;11385;50.822;4.324;2023-06-26T05:55:52;18.90;99.90
22436;DHT22;11385;50.822;4.324;2023-06-26T05:58:19;18.90;99.90
22436;DHT22;11385;50.822;4.324;2023-06-26T06:00:46;18.90;99.90
22436;DHT22;11385;50.822;4.324;2023-06-26T06:03:13;19.00;99.90
22436;DHT22;11385;50.822;4.324;2023-06-26T06:05:39;19.00;99.90
22436;DHT22;11385;50.822;4.324;2023-06-26T06:08:06;19.00;99.90
22436;DHT22;11385;50.822;4.324;2023-06-26T06:10:33;19.00;99.90
22436;DHT22;11385;50.822;4.324;2023-06-26T06:13:00;19.00;99.90
22436;DHT22;11385;50.822;4.324;2023-06-26T06:15:27;19.00;99.90
22436;DHT22;11385;50.822;4.324;2023-06-26T06:17:54;19.20;99.90
22436;DHT22;11385;50.822;4.324;2023-06-26T06:20:21;19.20;99.90
22436;DHT22;11385;50.822;4.324;2023-06-26T06:22:47;19.20;99.90
22436;DHT22;11385;50.822;4.324;2023-06-26T06:25:14;19.20;99.90
22436;DHT22;11385;50.822;4.324;2023-06-26T06:27:41;19.10;99.90
22436;DHT22;11385;50.822;4.324;2023-06-26T06:30:12;19.10;99.90
22436;DHT22;11385;50.822;4.324;2023-06-26T06:32:38;19.20;99.90
22436;DHT22;11385;50.822;4.324;2023-06-26T06:35:06;19.20;99.90
22436;DHT22;11385;50.822;4.324;2023-06-26T06:37:35;19.10;99.90
22436;DHT22;11385;50.822;4.324;2023-06-26T06:40:02;19.30;99.90
22436;DHT22;11385;50.822;4.324;2023-06-26T06:42:30;19.40;99.90
22436;DHT22;11385;50.822;4.324;2023-06-26T06:44:56;19.60;99.90
22436;DHT22;11385;50.822;4.324;2023-06-26T06:47:23;19.50;99.90
22436;DHT22;11385;50.822;4.324;2023-06-26T06:49:50;19.50;99.90
22436;DHT22;11385;50.822;4.324;2023-06-26T06:52:17;19.50;99.90
22436;DHT22;11385;50.822;4.324;2023-06-26T06:54:56;19.60;99.90
22436;DHT22;11385;50.822;4.324;2023-06-26T06:57:25;19.60;99.90
22436;DHT22;11385;50.822;4.324;2023-06-26T06:59:51;19.50;99.90
22436;DHT22;11385;50.822;4.324;2023-06-26T07:02:18;19.40;99.90
22436;DHT22;11385;50.822;4.324;2023-06-26T07:04:45;19.60;99.90
22436;DHT22;11385;50.822;4.324;2023-06-26T07:07:12;19.80;99.90
22436;DHT22;11385;50.822;4.324;2023-06-26T07:09:40;19.80;99.90
22436;DHT22;11385;50.822;4.324;2023-06-26T07:12:06;19.60;99.90
22436;DHT22;11385;50.822;4.324;2023-06-26T07:14:33;19.70;99.90
22436;DHT22;11385;50.822;4.324;2023-06-26T07:17:00;19.60;99.90
22436;DHT22;11385;50.822;4.324;2023-06-26T07:19:26;19.60;99.90
22436;DHT22;11385;50.822;4.324;2023-06-26T07:21:53;19.60;99.90
22436;DHT22;11385;50.822;4.324;2023-06-26T07:24:20;19.80;99.90
22436;DHT22;11385;50.822;4.324;2023-06-26T07:26:46;20.00;99.90
22436;DHT22;11385;50.822;4.324;2023-06-26T07:29:13;20.00;99.90
22436;DHT22;11385;50.822;4.324;2023-06-26T07:31:41;19.90;99.90
22436;DHT22;11385;50.822;4.324;2023-06-26T07:34:08;19.90;99.90
22436;DHT22;11385;50.822;4.324;2023-06-26T07:36:34;19.90;99.90
22436;DHT22;11385;50.822;4.324;2023-06-26T07:39:01;20.10;99.90
22436;DHT22;11385;50.822;4.324;2023-06-26T07:41:27;20.00;99.90
22436;DHT22;11385;50.822;4.324;2023-06-26T07:43:57;20.00;99.90
22436;DHT22;11385;50.822;4.324;2023-06-26T07:46:24;20.10;99.90
22436;DHT22;11385;50.822;4.324;2023-06-26T07:48:51;20.20;99.90
22436;DHT22;11385;50.822;4.324;2023-06-26T07:51:17;20.40;99.90
22436;DHT22;11385;50.822;4.324;2023-06-26T07:53:44;20.30;99.90
22436;DHT22;11385;50.822;4.324;2023-06-26T07:56:11;20.40;99.90
22436;DHT22;11385;50.822;4.324;2023-06-26T07:58:37;20.60;99.90
22436;DHT22;11385;50.822;4.324;2023-06-26T08:01:04;20.70;99.90
22436;DHT22;11385;50.822;4.324;2023-06-26T08:03:31;20.50;99.90
22436;DHT22;11385;50.822;4.324;2023-06-26T08:05:57;20.60;99.90
22436;DHT22;11385;50.822;4.324;2023-06-26T08:08:24;20.40;99.90
22436;DHT22;11385;50.822;4.324;2023-06-26T08:10:50;20.50;99.90
22436;DHT22;11385;50.822;4.324;2023-06-26T08:13:17;20.70;99.90
22436;DHT22;11385;50.822;4.324;2023-06-26T08:15:44;20.60;99.90
22436;DHT22;11385;50.822;4.324;2023-06-26T08:18:11;20.60;99.90
22436;DHT22;11385;50.822;4.324;2023-06-26T08:20:37;20.70;99.90
22436;DHT22;11385;50.822;4.324;2023-06-26T08:23:04;20.80;99.90
22436;DHT22;11385;50.822;4.324;2023-06-26T08:25:31;21.10;99.90
22436;DHT22;11385;50.822;4.324;2023-06-26T08:27:58;21.20;99.90
22436;DHT22;11385;50.822;4.324;2023-06-26T08:30:25;21.20;99.90
22436;DHT22;11385;50.822;4.324;2023-06-26T08:32:55;21.40;99.90
22436;DHT22;11385;50.822;4.324;2023-06-26T08:35:22;21.50;99.90
22436;DHT22;11385;50.822;4.324;2023-06-26T08:37:49;21.40;99.90
22436;DHT22;11385;50.822;4.324;2023-06-26T08:40:17;21.40;99.90
22436;DHT22;11385;50.822;4.324;2023-06-26T08:42:45;21.40;99.90
22436;DHT22;11385;50.822;4.324;2023-06-26T08:45:11;21.60;99.90
22436;DHT22;11385;50.822;4.324;2023-06-26T08:47:39;21.40;99.90
22436;DHT22;11385;50.822;4.324;2023-06-26T08:50:10;21.40;99.90
22436;DHT22;11385;50.822;4.324;2023-06-26T08:52:43;21.40;99.90
22436;DHT22;11385;50.822;4.324;2023-06-26T08:55:12;21.40;99.90
22436;DHT22;11385;50.822;4.324;2023-06-26T08:57:42;21.50;99.90
22436;DHT22;11385;50.822;4.324;2023-06-26T09:00:10;21.50;99.90
22436;DHT22;11385;50.822;4.324;2023-06-26T09:02:36;21.40;99.90
22436;DHT22;11385;50.822;4.324;2023-06-26T09:05:03;21.50;99.90
22436;DHT22;11385;50.822;4.324;2023-06-26T09:07:34;21.60;99.90
22436;DHT22;11385;50.822;4.324;2023-06-26T09:10:06;21.70;99.90
22436;DHT22;11385;50.822;4.324;2023-06-26T09:12:33;21.40;99.90
22436;DHT22;11385;50.822;4.324;2023-06-26T09:15:01;21.60;99.90
22436;DHT22;11385;50.822;4.324;2023-06-26T09:17:30;21.80;99.90
22436;DHT22;11385;50.822;4.324;2023-06-26T09:19:56;21.90;99.90
22436;DHT22;11385;50.822;4.324;2023-06-26T09:22:33;21.80;99.90
22436;DHT22;11385;50.822;4.324;2023-06-26T09:24:57;21.80;99.90
22436;DHT22;11385;50.822;4.324;2023-06-26T09:27:24;21.80;99.90
22436;DHT22;11385;50.822;4.324;2023-06-26T09:29:52;21.70;99.90
22436;DHT22;11385;50.822;4.324;2023-06-26T09:32:24;21.50;99.90
22436;DHT22;11385;50.822;4.324;2023-06-26T09:34:53;21.50;99.90
22436;DHT22;11385;50.822;4.324;2023-06-26T09:37:22;21.70;99.90
22436;DHT22;11385;50.822;4.324;2023-06-26T09:39:50;22.00;99.90
22436;DHT22;11385;50.822;4.324;2023-06-26T09:42:19;22.10;99.90
22436;DHT22;11385;50.822;4.324;2023-06-26T09:44:47;22.20;99.90
22436;DHT22;11385;50.822;4.324;2023-06-26T09:47:17;22.10;99.90
22436;DHT22;11385;50.822;4.324;2023-06-26T09:49:46;21.90;99.90
22436;DHT22;11385;50.822;4.324;2023-06-26T09:52:15;21.80;99.90
22436;DHT22;11385;50.822;4.324;2023-06-26T09:54:43;22.00;99.90
22436;DHT22;11385;50.822;4.324;2023-06-26T09:57:13;22.20;99.90
22436;DHT22;11385;50.822;4.324;2023-06-26T09:59:41;22.20;99.90
22436;DHT22;11385;50.822;4.324;2023-06-26T10:02:08;22.10;99.90
22436;DHT22;11385;50.822;4.324;2023-06-26T10:04:35;22.20;99.90
22436;DHT22;11385;50.822;4.324;2023-06-26T10:07:05;22.40;99.90
22436;DHT22;11385;50.822;4.324;2023-06-26T10:09:33;22.10;99.90
22436;DHT22;11385;50.822;4.324;2023-06-26T10:12:06;21.90;99.90
22436;DHT22;11385;50.822;4.324;2023-06-26T10:14:36;21.90;99.90
22436;DHT22;11385;50.822;4.324;2023-06-26T10:17:10;22.00;99.90
22436;DHT22;11385;50.822;4.324;2023-06-26T10:19:41;22.20;99.90
22436;DHT22;11385;50.822;4.324;2023-06-26T10:22:12;22.20;99.90
22436;DHT22;11385;50.822;4.324;2023-06-26T10:24:40;22.30;99.90
22436;DHT22;11385;50.822;4.324;2023-06-26T10:27:25;22.60;99.90
22436;DHT22;11385;50.822;4.324;2023-06-26T10:29:56;22.80;99.90
22436;DHT22;11385;50.822;4.324;2023-06-26T10:32:26;22.60;99.90
22436;DHT22;11385;50.822;4.324;2023-06-26T10:34:55;22.60;99.90
22436;DHT22;11385;50.822;4.324;2023-06-26T10:39:59;22.90;99.90
22436;DHT22;11385;50.822;4.324;2023-06-26T10:42:35;22.80;99.90
22436;DHT22;11385;50.822;4.324;2023-06-26T10:45:11;22.80;99.90
22436;DHT22;11385;50.822;4.324;2023-06-26T10:47:41;22.70;99.90
22436;DHT22;11385;50.822;4.324;2023-06-26T10:50:24;22.80;99.90
22436;DHT22;11385;50.822;4.324;2023-06-26T10:55:30;23.20;99.90
22436;DHT22;11385;50.822;4.324;2023-06-26T10:57:57;23.30;99.90
22436;DHT22;11385;50.822;4.324;2023-06-26T11:00:24;23.60;99.90
22436;DHT22;11385;50.822;4.324;2023-06-26T11:02:51;23.90;99.90
22436;DHT22;11385;50.822;4.324;2023-06-26T11:05:27;24.00;99.90
22436;DHT22;11385;50.822;4.324;2023-06-26T11:08:04;24.10;99.90
22436;DHT22;11385;50.822;4.324;2023-06-26T11:13:05;24.20;99.90
22436;DHT22;11385;50.822;4.324;2023-06-26T11:15:32;23.80;99.90
22436;DHT22;11385;50.822;4.324;2023-06-26T11:17:59;24.00;99.90
22436;DHT22;11385;50.822;4.324;2023-06-26T11:20:27;24.20;99.90
22436;DHT22;11385;50.822;4.324;2023-06-26T11:22:55;24.10;99.90
22436;DHT22;11385;50.822;4.324;2023-06-26T11:25:24;23.70;99.90
22436;DHT22;11385;50.822;4.324;2023-06-26T11:27:53;23.60;99.90
22436;DHT22;11385;50.822;4.324;2023-06-26T11:30:24;24.00;99.90
22436;DHT22;11385;50.822;4.324;2023-06-26T11:32:51;24.10;99.90
22436;DHT22;11385;50.822;4.324;2023-06-26T11:35:23;24.10;99.90
22436;DHT22;11385;50.822;4.324;2023-06-26T11:37:55;24.20;99.90
22436;DHT22;11385;50.822;4.324;2023-06-26T11:40:23;24.20;99.90
22436;DHT22;11385;50.822;4.324;2023-06-26T11:42:53;24.10;99.90
22436;DHT22;11385;50.822;4.324;2023-06-26T11:45:20;24.20;99.90
22436;DHT22;11385;50.822;4.324;2023-06-26T11:47:47;24.00;99.90
22436;DHT22;11385;50.822;4.324;2023-06-26T11:50:15;23.90;99.90
22436;DHT22;11385;50.822;4.324;2023-06-26T11:52:44;23.50;99.90
22436;DHT22;11385;50.822;4.324;2023-06-26T11:55:11;23.30;99.90
22436;DHT22;11385;50.822;4.324;2023-06-26T11:57:38;23.40;99.90
22436;DHT22;11385;50.822;4.324;2023-06-26T12:00:13;23.50;99.90
22436;DHT22;11385;50.822;4.324;2023-06-26T12:02:40;23.60;99.90
22436;DHT22;11385;50.822;4.324;2023-06-26T12:05:07;23.60;99.90
22436;DHT22;11385;50.822;4.324;2023-06-26T12:07:34;23.60;99.90
22436;DHT22;11385;50.822;4.324;2023-06-26T12:10:03;24.00;99.90
22436;DHT22;11385;50.822;4.324;2023-06-26T12:12:32;24.20;99.90
22436;DHT22;11385;50.822;4.324;2023-06-26T12:14:59;24.20;99.90
22436;DHT22;11385;50.822;4.324;2023-06-26T12:17:26;24.10;99.90
22436;DHT22;11385;50.822;4.324;2023-06-26T12:19:53;23.60;99.90
22436;DHT22;11385;50.822;4.324;2023-06-26T12:22:20;23.60;99.90
22436;DHT22;11385;50.822;4.324;2023-06-26T12:24:47;23.70;99.90
22436;DHT22;11385;50.822;4.324;2023-06-26T12:27:17;23.80;99.90
22436;DHT22;11385;50.822;4.324;2023-06-26T12:29:53;23.70;99.90
22436;DHT22;11385;50.822;4.324;2023-06-26T12:32:24;23.50;99.90
22436;DHT22;11385;50.822;4.324;2023-06-26T12:34:51;23.30;99.90
22436;DHT22;11385;50.822;4.324;2023-06-26T12:37:19;23.50;99.90
22436;DHT22;11385;50.822;4.324;2023-06-26T12:39:49;23.90;99.90
22436;DHT22;11385;50.822;4.324;2023-06-26T12:42:22;23.80;99.90
22436;DHT22;11385;50.822;4.324;2023-06-26T12:44:50;24.00;99.90
22436;DHT22;11385;50.822;4.324;2023-06-26T12:47:23;24.40;99.90
22436;DHT22;11385;50.822;4.324;2023-06-26T12:49:50;25.00;99.90
22436;DHT22;11385;50.822;4.324;2023-06-26T12:52:17;25.30;99.90
22436;DHT22;11385;50.822;4.324;2023-06-26T12:54:46;25.30;99.90
22436;DHT22;11385;50.822;4.324;2023-06-26T12:57:13;25.60;99.90
22436;DHT22;11385;50.822;4.324;2023-06-26T12:59:42;25.00;99.90
22436;DHT22;11385;50.822;4.324;2023-06-26T13:02:10;25.20;99.90
22436;DHT22;11385;50.822;4.324;2023-06-26T13:04:37;25.10;99.90
22436;DHT22;11385;50.822;4.324;2023-06-26T13:07:08;24.90;99.90
22436;DHT22;11385;50.822;4.324;2023-06-26T13:09:35;25.00;99.90
22436;DHT22;11385;50.822;4.324;2023-06-26T13:12:04;25.00;99.90
22436;DHT22;11385;50.822;4.324;2023-06-26T13:14:32;24.70;99.90
22436;DHT22;11385;50.822;4.324;2023-06-26T13:17:00;24.80;99.90
22436;DHT22;11385;50.822;4.324;2023-06-26T13:19:27;24.50;99.90
22436;DHT22;11385;50.822;4.324;2023-06-26T13:21:54;24.20;99.90
22436;DHT22;11385;50.822;4.324;2023-06-26T13:24:21;24.40;99.90
22436;DHT22;11385;50.822;4.324;2023-06-26T13:26:48;24.70;99.90
22436;DHT22;11385;50.822;4.324;2023-06-26T13:29:15;24.60;99.90
22436;DHT22;11385;50.822;4.324;2023-06-26T13:31:41;24.40;99.90
22436;DHT22;11385;50.822;4.324;2023-06-26T13:34:08;24.50;99.90
22436;DHT22;11385;50.822;4.324;2023-06-26T13:36:35;24.70;99.90
22436;DHT22;11385;50.822;4.324;2023-06-26T13:39:02;24.80;99.90
22436;DHT22;11385;50.822;4.324;2023-06-26T13:41:30;24.90;99.90
22436;DHT22;11385;50.822;4.324;2023-06-26T13:43:57;25.20;99.90
22436;DHT22;11385;50.822;4.324;2023-06-26T13:46:23;25.20;99.90
22436;DHT22;11385;50.822;4.324;2023-06-26T13:48:50;25.00;99.90
22436;DHT22;11385;50.822;4.324;2023-06-26T13:51:17;25.30;99.90
22436;DHT22;11385;50.822;4.324;2023-06-26T13:53:43;25.70;99.90
22436;DHT22;11385;50.822;4.324;2023-06-26T13:56:10;25.90;99.90
22436;DHT22;11385;50.822;4.324;2023-06-26T13:58:37;25.70;99.90
22436;DHT22;11385;50.822;4.324;2023-06-26T14:01:04;25.70;99.90
22436;DHT22;11385;50.822;4.324;2023-06-26T14:03:31;26.00;99.90
22436;DHT22;11385;50.822;4.324;2023-06-26T14:05:58;25.70;99.90
22436;DHT22;11385;50.822;4.324;2023-06-26T14:08:24;25.60;99.90
22436;DHT22;11385;50.822;4.324;2023-06-26T14:10:52;25.50;99.90
22436;DHT22;11385;50.822;4.324;2023-06-26T14:13:20;25.00;99.90
22436;DHT22;11385;50.822;4.324;2023-06-26T14:15:46;25.20;99.90
22436;DHT22;11385;50.822;4.324;2023-06-26T14:18:13;25.00;99.90
22436;DHT22;11385;50.822;4.324;2023-06-26T14:20:40;25.30;99.90
22436;DHT22;11385;50.822;4.324;2023-06-26T14:23:07;25.40;99.90
22436;DHT22;11385;50.822;4.324;2023-06-26T14:25:33;25.50;99.90
22436;DHT22;11385;50.822;4.324;2023-06-26T14:28:00;25.40;99.90
22436;DHT22;11385;50.822;4.324;2023-06-26T14:30:27;25.30;99.90
22436;DHT22;11385;50.822;4.324;2023-06-26T14:32:53;25.50;99.90
22436;DHT22;11385;50.822;4.324;2023-06-26T14:35:20;25.30;99.90
22436;DHT22;11385;50.822;4.324;2023-06-26T14:37:48;25.00;99.90
22436;DHT22;11385;50.822;4.324;2023-06-26T14:40:15;24.90;99.90
22436;DHT22;11385;50.822;4.324;2023-06-26T14:42:42;24.90;99.90
22436;DHT22;11385;50.822;4.324;2023-06-26T14:45:10;25.00;99.90
22436;DHT22;11385;50.822;4.324;2023-06-26T14:47:36;25.10;99.90
22436;DHT22;11385;50.822;4.324;2023-06-26T14:50:04;24.90;99.90
22436;DHT22;11385;50.822;4.324;2023-06-26T14:52:30;24.90;99.90
22436;DHT22;11385;50.822;4.324;2023-06-26T14:54:57;24.60;99.90
22436;DHT22;11385;50.822;4.324;2023-06-26T14:57:24;24.60;99.90
22436;DHT22;11385;50.822;4.324;2023-06-26T14:59:50;24.60;99.90
22436;DHT22;11385;50.822;4.324;2023-06-26T15:02:17;24.60;99.90
22436;DHT22;11385;50.822;4.324;2023-06-26T15:04:44;24.80;99.90
22436;DHT22;11385;50.822;4.324;2023-06-26T15:07:12;24.70;99.90
22436;DHT22;11385;50.822;4.324;2023-06-26T15:09:38;24.80;99.90
22436;DHT22;11385;50.822;4.324;2023-06-26T15:12:07;24.60;99.90
22436;DHT22;11385;50.822;4.324;2023-06-26T15:14:35;24.40;99.90
22436;DHT22;11385;50.822;4.324;2023-06-26T15:17:02;24.30;99.90
22436;DHT22;11385;50.822;4.324;2023-06-26T15:19:29;24.50;99.90
22436;DHT22;11385;50.822;4.324;2023-06-26T15:21:55;24.90;99.90
22436;DHT22;11385;50.822;4.324;2023-06-26T15:24:22;24.90;99.90
22436;DHT22;11385;50.822;4.324;2023-06-26T15:26:49;24.80;99.90
22436;DHT22;11385;50.822;4.324;2023-06-26T15:29:15;24.50;99.90
22436;DHT22;11385;50.822;4.324;2023-06-26T15:31:45;24.80;99.90
22436;DHT22;11385;50.822;4.324;2023-06-26T15:34:11;24.70;99.90
22436;DHT22;11385;50.822;4.324;2023-06-26T15:36:39;24.20;99.90
22436;DHT22;11385;50.822;4.324;2023-06-26T15:39:06;24.00;99.90
22436;DHT22;11385;50.822;4.324;2023-06-26T15:41:33;24.30;99.90